Terminal Aerodrome Forecast
Issued by NWS

Current Version | Previous Version | Text Only | Print | Product List | Glossary On
Versions: 1 2 3 4 5 6 7 8 9 10 11 12 13 14 15 16 17 18 19 20
000
FTAK31 PANC 290527
TAFACD
TAF
PACD 290527Z 2906/3006 12005KT P6SM SCT030 BKN040
     FM290900 VRB04KT P6SM OVC030
     FM291800 19010KT P6SM BKN040=

USA.gov is the U.S. government's official web portal to all federal, state and local government web resources and services.